<?xml version="1.0" encoding="UTF-8" standalone="no" ?>
<gpx xmlns="http://www.topografix.com/GPX/1/1" xmlns:xsi="http://www.w3.org/2001/XMLSchema-instance" xsi:schemaLocation="http://www.topografix.com/GPX/1/1 http://www.topografix.com/GPX/1/1/gpx.xsd" version="1.1" creator="VisuGPX - https://www.visugpx.com">
  <metadata>
    <name>Les Tours de Montmayeur</name>
    <desc><![CDATA[dénivelée : 604 m
distance : 19.36 km]]></desc>
  </metadata>
  <trk>
    <name><![CDATA[2013-04-23-02]]></name>
    <trkseg>
      <trkpt lat="45.47545" lon="6.11608">
        <ele>538.486083</ele>
        <time>2013-04-23T13:21:30Z</time>
      </trkpt>
      <trkpt lat="45.47536" lon="6.11609">
        <ele>538.976013</ele>
        <time>2013-04-23T13:22:56Z</time>
      </trkpt>
      <trkpt lat="45.47529" lon="6.11601">
        <ele>538.210632</ele>
        <time>2013-04-23T13:23:06Z</time>
      </trkpt>
      <trkpt lat="45.47522" lon="6.11595">
        <ele>538.086181</ele>
        <time>2013-04-23T13:23:14Z</time>
      </trkpt>
      <trkpt lat="45.47515" lon="6.1159">
        <ele>536.850646</ele>
        <time>2013-04-23T13:23:27Z</time>
      </trkpt>
      <trkpt lat="45.47508" lon="6.11585">
        <ele>536.660156</ele>
        <time>2013-04-23T13:23:34Z</time>
      </trkpt>
      <trkpt lat="45.475" lon="6.1158">
        <ele>535.313964</ele>
        <time>2013-04-23T13:23:42Z</time>
      </trkpt>
      <trkpt lat="45.47492" lon="6.11576">
        <ele>534.615234</ele>
        <time>2013-04-23T13:23:50Z</time>
      </trkpt>
      <trkpt lat="45.47483" lon="6.11572">
        <ele>534.183959</ele>
        <time>2013-04-23T13:23:58Z</time>
      </trkpt>
      <trkpt lat="45.47475" lon="6.11569">
        <ele>533.002624</ele>
        <time>2013-04-23T13:24:05Z</time>
      </trkpt>
      <trkpt lat="45.47468" lon="6.11567">
        <ele>532.858459</ele>
        <time>2013-04-23T13:24:12Z</time>
      </trkpt>
      <trkpt lat="45.4746" lon="6.11565">
        <ele>531.460083</ele>
        <time>2013-04-23T13:24:19Z</time>
      </trkpt>
      <trkpt lat="45.47452" lon="6.11564">
        <ele>530.695312</ele>
        <time>2013-04-23T13:24:26Z</time>
      </trkpt>
      <trkpt lat="45.47444" lon="6.11563">
        <ele>530.517456</ele>
        <time>2013-04-23T13:24:33Z</time>
      </trkpt>
      <trkpt lat="45.47435" lon="6.11562">
        <ele>529.377197</ele>
        <time>2013-04-23T13:24:41Z</time>
      </trkpt>
      <trkpt lat="45.47428" lon="6.11558">
        <ele>529.367919</ele>
        <time>2013-04-23T13:24:46Z</time>
      </trkpt>
      <trkpt lat="45.4742" lon="6.11553">
        <ele>528.240966</ele>
        <time>2013-04-23T13:24:54Z</time>
      </trkpt>
      <trkpt lat="45.47414" lon="6.11544">
        <ele>527.122375</ele>
        <time>2013-04-23T13:25:02Z</time>
      </trkpt>
      <trkpt lat="45.47408" lon="6.11535">
        <ele>526.096557</ele>
        <time>2013-04-23T13:25:09Z</time>
      </trkpt>
      <trkpt lat="45.47402" lon="6.11527">
        <ele>525.236083</ele>
        <time>2013-04-23T13:25:16Z</time>
      </trkpt>
      <trkpt lat="45.47397" lon="6.11518">
        <ele>524.172363</ele>
        <time>2013-04-23T13:25:23Z</time>
      </trkpt>
      <trkpt lat="45.47391" lon="6.11511">
        <ele>523.780334</ele>
        <time>2013-04-23T13:25:30Z</time>
      </trkpt>
      <trkpt lat="45.47384" lon="6.11504">
        <ele>522.699768</ele>
        <time>2013-04-23T13:25:37Z</time>
      </trkpt>
      <trkpt lat="45.47376" lon="6.11498">
        <ele>521.364196</ele>
        <time>2013-04-23T13:25:45Z</time>
      </trkpt>
      <trkpt lat="45.47369" lon="6.11493">
        <ele>520.767211</ele>
        <time>2013-04-23T13:25:52Z</time>
      </trkpt>
      <trkpt lat="45.47361" lon="6.1149">
        <ele>519.83258</ele>
        <time>2013-04-23T13:25:59Z</time>
      </trkpt>
      <trkpt lat="45.47354" lon="6.11485">
        <ele>519.094482</ele>
        <time>2013-04-23T13:26:06Z</time>
      </trkpt>
      <trkpt lat="45.47346" lon="6.1148">
        <ele>517.643249</ele>
        <time>2013-04-23T13:26:13Z</time>
      </trkpt>
      <trkpt lat="45.47339" lon="6.11474">
        <ele>516.231018</ele>
        <time>2013-04-23T13:26:22Z</time>
      </trkpt>
      <trkpt lat="45.47332" lon="6.11469">
        <ele>516.037292</ele>
        <time>2013-04-23T13:26:29Z</time>
      </trkpt>
      <trkpt lat="45.47324" lon="6.11463">
        <ele>515.115173</ele>
        <time>2013-04-23T13:26:35Z</time>
      </trkpt>
      <trkpt lat="45.47317" lon="6.11457">
        <ele>514.13269</ele>
        <time>2013-04-23T13:26:41Z</time>
      </trkpt>
      <trkpt lat="45.4731" lon="6.11451">
        <ele>513.440185</ele>
        <time>2013-04-23T13:26:47Z</time>
      </trkpt>
      <trkpt lat="45.47303" lon="6.11446">
        <ele>512.676879</ele>
        <time>2013-04-23T13:26:53Z</time>
      </trkpt>
      <trkpt lat="45.47295" lon="6.11441">
        <ele>511.97351</ele>
        <time>2013-04-23T13:27:00Z</time>
      </trkpt>
      <trkpt lat="45.47288" lon="6.11437">
        <ele>510.4971</ele>
        <time>2013-04-23T13:27:06Z</time>
      </trkpt>
      <trkpt lat="45.47281" lon="6.11433">
        <ele>509.558685</ele>
        <time>2013-04-23T13:27:12Z</time>
      </trkpt>
      <trkpt lat="45.47273" lon="6.1143">
        <ele>509.445465</ele>
        <time>2013-04-23T13:27:18Z</time>
      </trkpt>
      <trkpt lat="45.47266" lon="6.11426">
        <ele>508.302917</ele>
        <time>2013-04-23T13:27:24Z</time>
      </trkpt>
      <trkpt lat="45.47258" lon="6.11422">
        <ele>507.436767</ele>
        <time>2013-04-23T13:27:31Z</time>
      </trkpt>
      <trkpt lat="45.4725" lon="6.11418">
        <ele>507.415466</ele>
        <time>2013-04-23T13:27:39Z</time>
      </trkpt>
      <trkpt lat="45.47244" lon="6.1141">
        <ele>505.763854</ele>
        <time>2013-04-23T13:27:48Z</time>
      </trkpt>
      <trkpt lat="45.47237" lon="6.11405">
        <ele>505.236022</ele>
        <time>2013-04-23T13:27:55Z</time>
      </trkpt>
      <trkpt lat="45.4723" lon="6.11397">
        <ele>504.121398</ele>
        <time>2013-04-23T13:28:02Z</time>
      </trkpt>
      <trkpt lat="45.47225" lon="6.11388">
        <ele>503.57727</ele>
        <time>2013-04-23T13:28:08Z</time>
      </trkpt>
      <trkpt lat="45.4722" lon="6.11379">
        <ele>502.623321</ele>
        <time>2013-04-23T13:28:15Z</time>
      </trkpt>
      <trkpt lat="45.47214" lon="6.1137">
        <ele>501.321197</ele>
        <time>2013-04-23T13:28:22Z</time>
      </trkpt>
      <trkpt lat="45.47207" lon="6.11363">
        <ele>500.107269</ele>
        <time>2013-04-23T13:28:28Z</time>
      </trkpt>
      <trkpt lat="45.472" lon="6.11357">
        <ele>500.110626</ele>
        <time>2013-04-23T13:28:34Z</time>
      </trkpt>
      <trkpt lat="45.47192" lon="6.11351">
        <ele>499.59436</ele>
        <time>2013-04-23T13:28:40Z</time>
      </trkpt>
      <trkpt lat="45.47184" lon="6.11346">
        <ele>498.23059</ele>
        <time>2013-04-23T13:28:46Z</time>
      </trkpt>
      <trkpt lat="45.47176" lon="6.1134">
        <ele>497.074401</ele>
        <time>2013-04-23T13:28:52Z</time>
      </trkpt>
      <trkpt lat="45.4717" lon="6.11333">
        <ele>496.264099</ele>
        <time>2013-04-23T13:28:59Z</time>
      </trkpt>
      <trkpt lat="45.47163" lon="6.11326">
        <ele>495.670013</ele>
        <time>2013-04-23T13:29:06Z</time>
      </trkpt>
      <trkpt lat="45.47156" lon="6.1132">
        <ele>495.162475</ele>
        <time>2013-04-23T13:29:12Z</time>
      </trkpt>
      <trkpt lat="45.47149" lon="6.11314">
        <ele>494.064239</ele>
        <time>2013-04-23T13:29:18Z</time>
      </trkpt>
      <trkpt lat="45.47142" lon="6.11308">
        <ele>492.848785</ele>
        <time>2013-04-23T13:29:25Z</time>
      </trkpt>
      <trkpt lat="45.47136" lon="6.11302">
        <ele>491.859252</ele>
        <time>2013-04-23T13:29:32Z</time>
      </trkpt>
      <trkpt lat="45.4713" lon="6.11295">
        <ele>491.535278</ele>
        <time>2013-04-23T13:29:38Z</time>
      </trkpt>
      <trkpt lat="45.47123" lon="6.11289">
        <ele>491.190063</ele>
        <time>2013-04-23T13:29:44Z</time>
      </trkpt>
      <trkpt lat="45.47115" lon="6.11285">
        <ele>490.44165</ele>
        <time>2013-04-23T13:29:51Z</time>
      </trkpt>
      <trkpt lat="45.47109" lon="6.11275">
        <ele>489.35614</ele>
        <time>2013-04-23T13:29:58Z</time>
      </trkpt>
      <trkpt lat="45.47103" lon="6.11269">
        <ele>488.150848</ele>
        <time>2013-04-23T13:30:03Z</time>
      </trkpt>
      <trkpt lat="45.47096" lon="6.11263">
        <ele>487.574829</ele>
        <time>2013-04-23T13:30:08Z</time>
      </trkpt>
      <trkpt lat="45.47088" lon="6.11256">
        <ele>486.994018</ele>
        <time>2013-04-23T13:30:14Z</time>
      </trkpt>
      <trkpt lat="45.47081" lon="6.11249">
        <ele>486.395874</ele>
        <time>2013-04-23T13:30:21Z</time>
      </trkpt>
      <trkpt lat="45.47075" lon="6.11243">
        <ele>485.563293</ele>
        <time>2013-04-23T13:30:27Z</time>
      </trkpt>
      <trkpt lat="45.47074" lon="6.11242">
        <ele>485.200012</ele>
        <time>2013-04-23T13:30:28Z</time>
      </trkpt>
      <trkpt lat="45.47066" lon="6.11236">
        <ele>484.399993</ele>
        <time>2013-04-23T13:30:35Z</time>
      </trkpt>
      <trkpt lat="45.47059" lon="6.11231">
        <ele>483.200012</ele>
        <time>2013-04-23T13:30:42Z</time>
      </trkpt>
      <trkpt lat="45.47051" lon="6.11227">
        <ele>483</ele>
        <time>2013-04-23T13:30:48Z</time>
      </trkpt>
      <trkpt lat="45.47044" lon="6.11224">
        <ele>482</ele>
        <time>2013-04-23T13:30:54Z</time>
      </trkpt>
      <trkpt lat="45.47035" lon="6.11223">
        <ele>481.200012</ele>
        <time>2013-04-23T13:31:01Z</time>
      </trkpt>
      <trkpt lat="45.47026" lon="6.11221">
        <ele>480.399993</ele>
        <time>2013-04-23T13:31:07Z</time>
      </trkpt>
      <trkpt lat="45.47018" lon="6.11219">
        <ele>479.899993</ele>
        <time>2013-04-23T13:31:13Z</time>
      </trkpt>
      <trkpt lat="45.4701" lon="6.11218">
        <ele>479</ele>
        <time>2013-04-23T13:31:19Z</time>
      </trkpt>
      <trkpt lat="45.47002" lon="6.11216">
        <ele>477.799987</ele>
        <time>2013-04-23T13:31:25Z</time>
      </trkpt>
      <trkpt lat="45.47001" lon="6.11215">
        <ele>477.799987</ele>
        <time>2013-04-23T13:31:26Z</time>
      </trkpt>
      <trkpt lat="45.46986" lon="6.1121">
        <ele>476.5</ele>
        <time>2013-04-23T13:31:37Z</time>
      </trkpt>
      <trkpt lat="45.46979" lon="6.11207">
        <ele>475.5</ele>
        <time>2013-04-23T13:31:43Z</time>
      </trkpt>
      <trkpt lat="45.46971" lon="6.11204">
        <ele>475</ele>
        <time>2013-04-23T13:31:50Z</time>
      </trkpt>
      <trkpt lat="45.46963" lon="6.112">
        <ele>474.399993</ele>
        <time>2013-04-23T13:31:57Z</time>
      </trkpt>
      <trkpt lat="45.46955" lon="6.11196">
        <ele>472.700012</ele>
        <time>2013-04-23T13:32:05Z</time>
      </trkpt>
      <trkpt lat="45.46947" lon="6.11191">
        <ele>471.899993</ele>
        <time>2013-04-23T13:32:12Z</time>
      </trkpt>
      <trkpt lat="45.46939" lon="6.11187">
        <ele>470.899993</ele>
        <time>2013-04-23T13:32:19Z</time>
      </trkpt>
      <trkpt lat="45.46933" lon="6.1118">
        <ele>470.299987</ele>
        <time>2013-04-23T13:32:25Z</time>
      </trkpt>
      <trkpt lat="45.46926" lon="6.11175">
        <ele>469.700012</ele>
        <time>2013-04-23T13:32:31Z</time>
      </trkpt>
      <trkpt lat="45.46925" lon="6.11174">
        <ele>469.5</ele>
        <time>2013-04-23T13:32:32Z</time>
      </trkpt>
      <trkpt lat="45.46911" lon="6.11162">
        <ele>467.899993</ele>
        <time>2013-04-23T13:32:45Z</time>
      </trkpt>
      <trkpt lat="45.46903" lon="6.11156">
        <ele>467.100006</ele>
        <time>2013-04-23T13:32:53Z</time>
      </trkpt>
      <trkpt lat="45.46896" lon="6.1115">
        <ele>466</ele>
        <time>2013-04-23T13:33:09Z</time>
      </trkpt>
      <trkpt lat="45.46889" lon="6.11142">
        <ele>466</ele>
        <time>2013-04-23T13:33:16Z</time>
      </trkpt>
      <trkpt lat="45.46884" lon="6.11132">
        <ele>465.399993</ele>
        <time>2013-04-23T13:33:23Z</time>
      </trkpt>
      <trkpt lat="45.46879" lon="6.11122">
        <ele>464.700012</ele>
        <time>2013-04-23T13:33:30Z</time>
      </trkpt>
      <trkpt lat="45.46874" lon="6.11112">
        <ele>463.799987</ele>
        <time>2013-04-23T13:33:37Z</time>
      </trkpt>
      <trkpt lat="45.46873" lon="6.1111">
        <ele>463.799987</ele>
        <time>2013-04-23T13:33:38Z</time>
      </trkpt>
      <trkpt lat="45.46863" lon="6.11094">
        <ele>462.100006</ele>
        <time>2013-04-23T13:33:49Z</time>
      </trkpt>
      <trkpt lat="45.46855" lon="6.11097">
        <ele>460.799987</ele>
        <time>2013-04-23T13:33:56Z</time>
      </trkpt>
      <trkpt lat="45.4685" lon="6.11107">
        <ele>460</ele>
        <time>2013-04-23T13:34:03Z</time>
      </trkpt>
      <trkpt lat="45.46852" lon="6.11118">
        <ele>459.5</ele>
        <time>2013-04-23T13:34:09Z</time>
      </trkpt>
      <trkpt lat="45.46854" lon="6.1113">
        <ele>459.700012</ele>
        <time>2013-04-23T13:34:15Z</time>
      </trkpt>
      <trkpt lat="45.46857" lon="6.11141">
        <ele>458.399993</ele>
        <time>2013-04-23T13:34:21Z</time>
      </trkpt>
      <trkpt lat="45.4686" lon="6.11153">
        <ele>458.5</ele>
        <time>2013-04-23T13:34:28Z</time>
      </trkpt>
      <trkpt lat="45.46861" lon="6.11165">
        <ele>457.600006</ele>
        <time>2013-04-23T13:34:34Z</time>
      </trkpt>
      <trkpt lat="45.46862" lon="6.11177">
        <ele>457.299987</ele>
        <time>2013-04-23T13:34:41Z</time>
      </trkpt>
      <trkpt lat="45.46862" lon="6.11179">
        <ele>456.899993</ele>
        <time>2013-04-23T13:34:42Z</time>
      </trkpt>
      <trkpt lat="45.4685" lon="6.11193">
        <ele>454.399993</ele>
        <time>2013-04-23T13:34:56Z</time>
      </trkpt>
      <trkpt lat="45.46842" lon="6.11189">
        <ele>454.5</ele>
        <time>2013-04-23T13:35:02Z</time>
      </trkpt>
      <trkpt lat="45.46835" lon="6.11185">
        <ele>453.600006</ele>
        <time>2013-04-23T13:35:08Z</time>
      </trkpt>
      <trkpt lat="45.46828" lon="6.1118">
        <ele>454.100006</ele>
        <time>2013-04-23T13:35:14Z</time>
      </trkpt>
      <trkpt lat="45.4682" lon="6.11177">
        <ele>452.700012</ele>
        <time>2013-04-23T13:35:20Z</time>
      </trkpt>
      <trkpt lat="45.46813" lon="6.11174">
        <ele>451.799987</ele>
        <time>2013-04-23T13:35:26Z</time>
      </trkpt>
      <trkpt lat="45.46805" lon="6.11171">
        <ele>449.600006</ele>
        <time>2013-04-23T13:35:32Z</time>
      </trkpt>
      <trkpt lat="45.46797" lon="6.11167">
        <ele>448.399993</ele>
        <time>2013-04-23T13:35:39Z</time>
      </trkpt>
      <trkpt lat="45.46788" lon="6.11163">
        <ele>447.799987</ele>
        <time>2013-04-23T13:35:45Z</time>
      </trkpt>
      <trkpt lat="45.46787" lon="6.11162">
        <ele>447.5</ele>
        <time>2013-04-23T13:35:46Z</time>
      </trkpt>
      <trkpt lat="45.46773" lon="6.11151">
        <ele>446.299987</ele>
        <time>2013-04-23T13:35:58Z</time>
      </trkpt>
      <trkpt lat="45.46766" lon="6.11145">
        <ele>446.200012</ele>
        <time>2013-04-23T13:36:05Z</time>
      </trkpt>
      <trkpt lat="45.46759" lon="6.11139">
        <ele>445.200012</ele>
        <time>2013-04-23T13:36:11Z</time>
      </trkpt>
      <trkpt lat="45.46752" lon="6.11132">
        <ele>445.399993</ele>
        <time>2013-04-23T13:36:18Z</time>
      </trkpt>
      <trkpt lat="45.46745" lon="6.11125">
        <ele>444.700012</ele>
        <time>2013-04-23T13:36:24Z</time>
      </trkpt>
      <trkpt lat="45.46738" lon="6.11118">
        <ele>445</ele>
        <time>2013-04-23T13:36:30Z</time>
      </trkpt>
      <trkpt lat="45.46732" lon="6.11112">
        <ele>444.200012</ele>
        <time>2013-04-23T13:36:36Z</time>
      </trkpt>
      <trkpt lat="45.46726" lon="6.11104">
        <ele>444.5</ele>
        <time>2013-04-23T13:36:43Z</time>
      </trkpt>
      <trkpt lat="45.46719" lon="6.11098">
        <ele>444.299987</ele>
        <time>2013-04-23T13:36:50Z</time>
      </trkpt>
      <trkpt lat="45.46718" lon="6.11098">
        <ele>444.100006</ele>
        <time>2013-04-23T13:36:51Z</time>
      </trkpt>
      <trkpt lat="45.46703" lon="6.11089">
        <ele>442.899993</ele>
        <time>2013-04-23T13:37:04Z</time>
      </trkpt>
      <trkpt lat="45.46695" lon="6.11087">
        <ele>442.200012</ele>
        <time>2013-04-23T13:37:10Z</time>
      </trkpt>
      <trkpt lat="45.46687" lon="6.11085">
        <ele>442</ele>
        <time>2013-04-23T13:37:16Z</time>
      </trkpt>
      <trkpt lat="45.46679" lon="6.11082">
        <ele>441.700012</ele>
        <time>2013-04-23T13:37:23Z</time>
      </trkpt>
      <trkpt lat="45.46671" lon="6.11082">
        <ele>440.899993</ele>
        <time>2013-04-23T13:37:29Z</time>
      </trkpt>
      <trkpt lat="45.46663" lon="6.1108">
        <ele>440.600006</ele>
        <time>2013-04-23T13:37:35Z</time>
      </trkpt>
      <trkpt lat="45.46655" lon="6.11078">
        <ele>439.299987</ele>
        <time>2013-04-23T13:37:42Z</time>
      </trkpt>
      <trkpt lat="45.46646" lon="6.11077">
        <ele>438.5</ele>
        <time>2013-04-23T13:37:49Z</time>
      </trkpt>
      <trkpt lat="45.46637" lon="6.11074">
        <ele>437.799987</ele>
        <time>2013-04-23T13:37:56Z</time>
      </trkpt>
      <trkpt lat="45.46636" lon="6.11073">
        <ele>437.600006</ele>
        <time>2013-04-23T13:37:57Z</time>
      </trkpt>
      <trkpt lat="45.46621" lon="6.11071">
        <ele>437.100006</ele>
        <time>2013-04-23T13:38:08Z</time>
      </trkpt>
      <trkpt lat="45.46613" lon="6.11072">
        <ele>436.700012</ele>
        <time>2013-04-23T13:38:14Z</time>
      </trkpt>
      <trkpt lat="45.46605" lon="6.11078">
        <ele>436</ele>
        <time>2013-04-23T13:38:22Z</time>
      </trkpt>
      <trkpt lat="45.46597" lon="6.11081">
        <ele>435.5</ele>
        <time>2013-04-23T13:39:14Z</time>
      </trkpt>
      <trkpt lat="45.46596" lon="6.11082">
        <ele>435.700012</ele>
        <time>2013-04-23T13:39:15Z</time>
      </trkpt>
      <trkpt lat="45.46585" lon="6.11066">
        <ele>436.700012</ele>
        <time>2013-04-23T13:40:17Z</time>
      </trkpt>
      <trkpt lat="45.46584" lon="6.11065">
        <ele>436.899993</ele>
        <time>2013-04-23T13:40:18Z</time>
      </trkpt>
      <trkpt lat="45.46571" lon="6.11051">
        <ele>438.100006</ele>
        <time>2013-04-23T13:40:33Z</time>
      </trkpt>
      <trkpt lat="45.46564" lon="6.11044">
        <ele>438.399993</ele>
        <time>2013-04-23T13:40:40Z</time>
      </trkpt>
      <trkpt lat="45.46557" lon="6.11037">
        <ele>438.799987</ele>
        <time>2013-04-23T13:40:47Z</time>
      </trkpt>
      <trkpt lat="45.46551" lon="6.11029">
        <ele>439</ele>
        <time>2013-04-23T13:40:54Z</time>
      </trkpt>
      <trkpt lat="45.46544" lon="6.11022">
        <ele>439.600006</ele>
        <time>2013-04-23T13:41:01Z</time>
      </trkpt>
      <trkpt lat="45.46538" lon="6.11013">
        <ele>440.5</ele>
        <time>2013-04-23T13:41:09Z</time>
      </trkpt>
      <trkpt lat="45.46532" lon="6.11005">
        <ele>440.899993</ele>
        <time>2013-04-23T13:41:16Z</time>
      </trkpt>
      <trkpt lat="45.46526" lon="6.10998">
        <ele>441.600006</ele>
        <time>2013-04-23T13:41:23Z</time>
      </trkpt>
      <trkpt lat="45.46525" lon="6.10997">
        <ele>441.299987</ele>
        <time>2013-04-23T13:41:24Z</time>
      </trkpt>
      <trkpt lat="45.46513" lon="6.10983">
        <ele>440.299987</ele>
        <time>2013-04-23T13:41:35Z</time>
      </trkpt>
      <trkpt lat="45.46506" lon="6.10975">
        <ele>442</ele>
        <time>2013-04-23T13:41:41Z</time>
      </trkpt>
      <trkpt lat="45.46499" lon="6.10969">
        <ele>442.100006</ele>
        <time>2013-04-23T13:41:46Z</time>
      </trkpt>
      <trkpt lat="45.46493" lon="6.10962">
        <ele>443.100006</ele>
        <time>2013-04-23T13:41:54Z</time>
      </trkpt>
      <trkpt lat="45.46488" lon="6.10952">
        <ele>443.100006</ele>
        <time>2013-04-23T13:42:01Z</time>
      </trkpt>
      <trkpt lat="45.46482" lon="6.10944">
        <ele>443.600006</ele>
        <time>2013-04-23T13:42:06Z</time>
      </trkpt>
      <trkpt lat="45.46478" lon="6.10934">
        <ele>444.700012</ele>
        <time>2013-04-23T13:42:12Z</time>
      </trkpt>
      <trkpt lat="45.46472" lon="6.10924">
        <ele>445.399993</ele>
        <time>2013-04-23T13:42:18Z</time>
      </trkpt>
      <trkpt lat="45.46466" lon="6.10915">
        <ele>445.700012</ele>
        <time>2013-04-23T13:42:25Z</time>
      </trkpt>
      <trkpt lat="45.46466" lon="6.10914">
        <ele>446.100006</ele>
        <time>2013-04-23T13:42:26Z</time>
      </trkpt>
      <trkpt lat="45.46454" lon="6.109">
        <ele>447.5</ele>
        <time>2013-04-23T13:42:37Z</time>
      </trkpt>
      <trkpt lat="45.46448" lon="6.10893">
        <ele>448.399993</ele>
        <time>2013-04-23T13:42:42Z</time>
      </trkpt>
      <trkpt lat="45.46441" lon="6.10886">
        <ele>448.600006</ele>
        <time>2013-04-23T13:42:47Z</time>
      </trkpt>
      <trkpt lat="45.46435" lon="6.10879">
        <ele>448.5</ele>
        <time>2013-04-23T13:42:51Z</time>
      </trkpt>
      <trkpt lat="45.46429" lon="6.10871">
        <ele>448.799987</ele>
        <time>2013-04-23T13:42:56Z</time>
      </trkpt>
      <trkpt lat="45.46422" lon="6.10863">
        <ele>449.700012</ele>
        <time>2013-04-23T13:43:01Z</time>
      </trkpt>
      <trkpt lat="45.46416" lon="6.10855">
        <ele>450.200012</ele>
        <time>2013-04-23T13:43:07Z</time>
      </trkpt>
      <trkpt lat="45.46411" lon="6.10846">
        <ele>450.5</ele>
        <time>2013-04-23T13:43:13Z</time>
      </trkpt>
      <trkpt lat="45.46404" lon="6.1084">
        <ele>451.700012</ele>
        <time>2013-04-23T13:43:18Z</time>
      </trkpt>
      <trkpt lat="45.46397" lon="6.10834">
        <ele>451.700012</ele>
        <time>2013-04-23T13:43:23Z</time>
      </trkpt>
      <trkpt lat="45.4639" lon="6.10829">
        <ele>451.5</ele>
        <time>2013-04-23T13:43:28Z</time>
      </trkpt>
      <trkpt lat="45.46389" lon="6.10828">
        <ele>451.700012</ele>
        <time>2013-04-23T13:43:29Z</time>
      </trkpt>
      <trkpt lat="45.46374" lon="6.10821">
        <ele>452.799987</ele>
        <time>2013-04-23T13:43:38Z</time>
      </trkpt>
      <trkpt lat="45.46367" lon="6.10816">
        <ele>453.5</ele>
        <time>2013-04-23T13:43:44Z</time>
      </trkpt>
      <trkpt lat="45.46359" lon="6.1081">
        <ele>454.100006</ele>
        <time>2013-04-23T13:43:52Z</time>
      </trkpt>
      <trkpt lat="45.46352" lon="6.10805">
        <ele>455.200012</ele>
        <time>2013-04-23T13:43:59Z</time>
      </trkpt>
      <trkpt lat="45.46346" lon="6.10796">
        <ele>455.899993</ele>
        <time>2013-04-23T13:44:07Z</time>
      </trkpt>
      <trkpt lat="45.4634" lon="6.10788">
        <ele>455.399993</ele>
        <time>2013-04-23T13:44:14Z</time>
      </trkpt>
      <trkpt lat="45.46333" lon="6.1078">
        <ele>456.799987</ele>
        <time>2013-04-23T13:44:20Z</time>
      </trkpt>
      <trkpt lat="45.46327" lon="6.10774">
        <ele>456</ele>
        <time>2013-04-23T13:44:25Z</time>
      </trkpt>
      <trkpt lat="45.46321" lon="6.10766">
        <ele>456.700012</ele>
        <time>2013-04-23T13:44:30Z</time>
      </trkpt>
      <trkpt lat="45.4632" lon="6.10765">
        <ele>456.799987</ele>
        <time>2013-04-23T13:44:31Z</time>
      </trkpt>
      <trkpt lat="45.46309" lon="6.10751">
        <ele>457.799987</ele>
        <time>2013-04-23T13:44:40Z</time>
      </trkpt>
      <trkpt lat="45.46302" lon="6.10744">
        <ele>458.100006</ele>
        <time>2013-04-23T13:44:45Z</time>
      </trkpt>
      <trkpt lat="45.46295" lon="6.10737">
        <ele>458.5</ele>
        <time>2013-04-23T13:44:50Z</time>
      </trkpt>
      <trkpt lat="45.46289" lon="6.10729">
        <ele>459.200012</ele>
        <time>2013-04-23T13:44:54Z</time>
      </trkpt>
      <trkpt lat="45.46283" lon="6.1072">
        <ele>458.5</ele>
        <time>2013-04-23T13:44:59Z</time>
      </trkpt>
      <trkpt lat="45.46278" lon="6.10712">
        <ele>459.899993</ele>
        <time>2013-04-23T13:45:03Z</time>
      </trkpt>
      <trkpt lat="45.46274" lon="6.10701">
        <ele>460.5</ele>
        <time>2013-04-23T13:45:08Z</time>
      </trkpt>
      <trkpt lat="45.46271" lon="6.10691">
        <ele>461</ele>
        <time>2013-04-23T13:45:13Z</time>
      </trkpt>
      <trkpt lat="45.46267" lon="6.10681">
        <ele>460.600006</ele>
        <time>2013-04-23T13:45:18Z</time>
      </trkpt>
      <trkpt lat="45.46264" lon="6.10671">
        <ele>461.200012</ele>
        <time>2013-04-23T13:45:23Z</time>
      </trkpt>
      <trkpt lat="45.4626" lon="6.10661">
        <ele>461.200012</ele>
        <time>2013-04-23T13:45:28Z</time>
      </trkpt>
      <trkpt lat="45.46255" lon="6.1065">
        <ele>461.600006</ele>
        <time>2013-04-23T13:45:34Z</time>
      </trkpt>
      <trkpt lat="45.46254" lon="6.10649">
        <ele>461.799987</ele>
        <time>2013-04-23T13:45:35Z</time>
      </trkpt>
      <trkpt lat="45.46244" lon="6.10632">
        <ele>463.399993</ele>
        <time>2013-04-23T13:45:48Z</time>
      </trkpt>
      <trkpt lat="45.46239" lon="6.10623">
        <ele>463.799987</ele>
        <time>2013-04-23T13:45:55Z</time>
      </trkpt>
      <trkpt lat="45.46233" lon="6.10616">
        <ele>464.899993</ele>
        <time>2013-04-23T13:46:01Z</time>
      </trkpt>
      <trkpt lat="45.46226" lon="6.1061">
        <ele>465.399993</ele>
        <time>2013-04-23T13:46:07Z</time>
      </trkpt>
      <trkpt lat="45.46219" lon="6.10602">
        <ele>465.700012</ele>
        <time>2013-04-23T13:46:13Z</time>
      </trkpt>
      <trkpt lat="45.46211" lon="6.10595">
        <ele>466.399993</ele>
        <time>2013-04-23T13:46:19Z</time>
      </trkpt>
      <trkpt lat="45.46205" lon="6.10587">
        <ele>467</ele>
        <time>2013-04-23T13:46:25Z</time>
      </trkpt>
      <trkpt lat="45.46199" lon="6.10579">
        <ele>467.399993</ele>
        <time>2013-04-23T13:46:31Z</time>
      </trkpt>
      <trkpt lat="45.46193" lon="6.10572">
        <ele>467.5</ele>
        <time>2013-04-23T13:46:36Z</time>
      </trkpt>
      <trkpt lat="45.46192" lon="6.10571">
        <ele>467.799987</ele>
        <time>2013-04-23T13:46:37Z</time>
      </trkpt>
      <trkpt lat="45.46181" lon="6.10556">
        <ele>468.700012</ele>
        <time>2013-04-23T13:46:47Z</time>
      </trkpt>
      <trkpt lat="45.46176" lon="6.10547">
        <ele>468.5</ele>
        <time>2013-04-23T13:46:52Z</time>
      </trkpt>
      <trkpt lat="45.46171" lon="6.10538">
        <ele>470.200012</ele>
        <time>2013-04-23T13:46:57Z</time>
      </trkpt>
      <trkpt lat="45.46168" lon="6.10528">
        <ele>470.700012</ele>
        <time>2013-04-23T13:47:02Z</time>
      </trkpt>
      <trkpt lat="45.46164" lon="6.1052">
        <ele>470.200012</ele>
        <time>2013-04-23T13:47:06Z</time>
      </trkpt>
      <trkpt lat="45.46161" lon="6.1051">
        <ele>470.799987</ele>
        <time>2013-04-23T13:47:10Z</time>
      </trkpt>
      <trkpt lat="45.46158" lon="6.105">
        <ele>471.200012</ele>
        <time>2013-04-23T13:47:15Z</time>
      </trkpt>
      <trkpt lat="45.46154" lon="6.1049">
        <ele>470.600006</ele>
        <time>2013-04-23T13:47:20Z</time>
      </trkpt>
      <trkpt lat="45.46149" lon="6.1048">
        <ele>471.799987</ele>
        <time>2013-04-23T13:47:26Z</time>
      </trkpt>
      <trkpt lat="45.46142" lon="6.10474">
        <ele>471.700012</ele>
        <time>2013-04-23T13:47:32Z</time>
      </trkpt>
      <trkpt lat="45.46136" lon="6.10465">
        <ele>472.399993</ele>
        <time>2013-04-23T13:47:45Z</time>
      </trkpt>
      <trkpt lat="45.46135" lon="6.10464">
        <ele>472.600006</ele>
        <time>2013-04-23T13:47:46Z</time>
      </trkpt>
      <trkpt lat="45.46123" lon="6.10449">
        <ele>473.700012</ele>
        <time>2013-04-23T13:48:01Z</time>
      </trkpt>
      <trkpt lat="45.46117" lon="6.10443">
        <ele>474.299987</ele>
        <time>2013-04-23T13:48:08Z</time>
      </trkpt>
      <trkpt lat="45.46109" lon="6.10436">
        <ele>475.200012</ele>
        <time>2013-04-23T13:48:15Z</time>
      </trkpt>
      <trkpt lat="45.46103" lon="6.10428">
        <ele>475.700012</ele>
        <time>2013-04-23T13:48:21Z</time>
      </trkpt>
      <trkpt lat="45.46097" lon="6.1042">
        <ele>475.799987</ele>
        <time>2013-04-23T13:48:27Z</time>
      </trkpt>
      <trkpt lat="45.46091" lon="6.10412">
        <ele>476.299987</ele>
        <time>2013-04-23T13:48:33Z</time>
      </trkpt>
      <trkpt lat="45.46087" lon="6.10402">
        <ele>476.799987</ele>
        <time>2013-04-23T13:48:40Z</time>
      </trkpt>
      <trkpt lat="45.46082" lon="6.10392">
        <ele>478.100006</ele>
        <time>2013-04-23T13:48:47Z</time>
      </trkpt>
      <trkpt lat="45.46081" lon="6.10391">
        <ele>478.200012</ele>
        <time>2013-04-23T13:48:48Z</time>
      </trkpt>
      <trkpt lat="45.46071" lon="6.10373">
        <ele>479.700012</ele>
        <time>2013-04-23T13:49:00Z</time>
      </trkpt>
      <trkpt lat="45.46068" lon="6.10362">
        <ele>479.700012</ele>
        <time>2013-04-23T13:49:06Z</time>
      </trkpt>
      <trkpt lat="45.46067" lon="6.10351">
        <ele>481.100006</ele>
        <time>2013-04-23T13:49:13Z</time>
      </trkpt>
      <trkpt lat="45.46063" lon="6.1034">
        <ele>480.899993</ele>
        <time>2013-04-23T13:49:20Z</time>
      </trkpt>
      <trkpt lat="45.46056" lon="6.10333">
        <ele>480.399993</ele>
        <time>2013-04-23T13:49:26Z</time>
      </trkpt>
      <trkpt lat="45.46049" lon="6.10328">
        <ele>480.700012</ele>
        <time>2013-04-23T13:49:32Z</time>
      </trkpt>
      <trkpt lat="45.46041" lon="6.10323">
        <ele>480.100006</ele>
        <time>2013-04-23T13:49:39Z</time>
      </trkpt>
      <trkpt lat="45.46033" lon="6.10319">
        <ele>480.299987</ele>
        <time>2013-04-23T13:49:45Z</time>
      </trkpt>
      <trkpt lat="45.46025" lon="6.10317">
        <ele>480.700012</ele>
        <time>2013-04-23T13:49:51Z</time>
      </trkpt>
      <trkpt lat="45.46024" lon="6.10316">
        <ele>480.700012</ele>
        <time>2013-04-23T13:49:52Z</time>
      </trkpt>
      <trkpt lat="45.4601" lon="6.1031">
        <ele>481</ele>
        <time>2013-04-23T13:50:04Z</time>
      </trkpt>
      <trkpt lat="45.46002" lon="6.10308">
        <ele>482.299987</ele>
        <time>2013-04-23T13:50:11Z</time>
      </trkpt>
      <trkpt lat="45.45993" lon="6.10306">
        <ele>482.299987</ele>
        <time>2013-04-23T13:50:18Z</time>
      </trkpt>
      <trkpt lat="45.45984" lon="6.10304">
        <ele>484.100006</ele>
        <time>2013-04-23T13:50:25Z</time>
      </trkpt>
      <trkpt lat="45.45977" lon="6.103">
        <ele>484.899993</ele>
        <time>2013-04-23T13:50:31Z</time>
      </trkpt>
      <trkpt lat="45.45969" lon="6.10294">
        <ele>484.100006</ele>
        <time>2013-04-23T13:50:38Z</time>
      </trkpt>
      <trkpt lat="45.45961" lon="6.10288">
        <ele>484</ele>
        <time>2013-04-23T13:50:46Z</time>
      </trkpt>
      <trkpt lat="45.45953" lon="6.10291">
        <ele>482.799987</ele>
        <time>2013-04-23T13:51:13Z</time>
      </trkpt>
      <trkpt lat="45.45952" lon="6.10292">
        <ele>482.5</ele>
        <time>2013-04-23T13:51:14Z</time>
      </trkpt>
      <trkpt lat="45.4595" lon="6.10284">
        <ele>482.399993</ele>
        <time>2013-04-23T13:52:32Z</time>
      </trkpt>
      <trkpt lat="45.45951" lon="6.10284">
        <ele>482.299987</ele>
        <time>2013-04-23T13:52:33Z</time>
      </trkpt>
      <trkpt lat="45.45951" lon="6.10289">
        <ele>482.799987</ele>
        <time>2013-04-23T13:54:46Z</time>
      </trkpt>
      <trkpt lat="45.4595" lon="6.10289">
        <ele>482.799987</ele>
        <time>2013-04-23T13:54:47Z</time>
      </trkpt>
      <trkpt lat="45.45934" lon="6.1029">
        <ele>480.399993</ele>
        <time>2013-04-23T13:55:01Z</time>
      </trkpt>
      <trkpt lat="45.45926" lon="6.10288">
        <ele>478.299987</ele>
        <time>2013-04-23T13:55:07Z</time>
      </trkpt>
      <trkpt lat="45.45918" lon="6.10286">
        <ele>477.600006</ele>
        <time>2013-04-23T13:55:13Z</time>
      </trkpt>
      <trkpt lat="45.4591" lon="6.10284">
        <ele>477.600006</ele>
        <time>2013-04-23T13:55:19Z</time>
      </trkpt>
      <trkpt lat="45.45902" lon="6.10282">
        <ele>475.799987</ele>
        <time>2013-04-23T13:55:25Z</time>
      </trkpt>
      <trkpt lat="45.45895" lon="6.10279">
        <ele>474.700012</ele>
        <time>2013-04-23T13:55:31Z</time>
      </trkpt>
      <trkpt lat="45.45887" lon="6.10281">
        <ele>473.5</ele>
        <time>2013-04-23T13:55:38Z</time>
      </trkpt>
      <trkpt lat="45.45879" lon="6.10277">
        <ele>472.700012</ele>
        <time>2013-04-23T13:55:47Z</time>
      </trkpt>
      <trkpt lat="45.45873" lon="6.1027">
        <ele>471.899993</ele>
        <time>2013-04-23T13:55:53Z</time>
      </trkpt>
      <trkpt lat="45.45872" lon="6.10269">
        <ele>471.799987</ele>
        <time>2013-04-23T13:55:54Z</time>
      </trkpt>
      <trkpt lat="45.45859" lon="6.10258">
        <ele>471.5</ele>
        <time>2013-04-23T13:56:04Z</time>
      </trkpt>
      <trkpt lat="45.45851" lon="6.10253">
        <ele>471</ele>
        <time>2013-04-23T13:56:10Z</time>
      </trkpt>
      <trkpt lat="45.45844" lon="6.10247">
        <ele>469</ele>
        <time>2013-04-23T13:56:16Z</time>
      </trkpt>
      <trkpt lat="45.4584" lon="6.10238">
        <ele>467.5</ele>
        <time>2013-04-23T13:56:24Z</time>
      </trkpt>
      <trkpt lat="45.45834" lon="6.10229">
        <ele>464.899993</ele>
        <time>2013-04-23T13:56:32Z</time>
      </trkpt>
      <trkpt lat="45.45829" lon="6.10221">
        <ele>463.799987</ele>
        <time>2013-04-23T13:56:39Z</time>
      </trkpt>
      <trkpt lat="45.45821" lon="6.10214">
        <ele>462.899993</ele>
        <time>2013-04-23T13:56:45Z</time>
      </trkpt>
      <trkpt lat="45.45814" lon="6.1021">
        <ele>462.5</ele>
        <time>2013-04-23T13:56:50Z</time>
      </trkpt>
      <trkpt lat="45.45806" lon="6.10206">
        <ele>461</ele>
        <time>2013-04-23T13:56:55Z</time>
      </trkpt>
      <trkpt lat="45.45805" lon="6.10205">
        <ele>460.899993</ele>
        <time>2013-04-23T13:56:56Z</time>
      </trkpt>
      <trkpt lat="45.45792" lon="6.10196">
        <ele>459.700012</ele>
        <time>2013-04-23T13:57:06Z</time>
      </trkpt>
      <trkpt lat="45.45785" lon="6.10189">
        <ele>458.600006</ele>
        <time>2013-04-23T13:57:15Z</time>
      </trkpt>
      <trkpt lat="45.45777" lon="6.10194">
        <ele>456.200012</ele>
        <time>2013-04-23T13:58:51Z</time>
      </trkpt>
      <trkpt lat="45.45776" lon="6.10194">
        <ele>456.100006</ele>
        <time>2013-04-23T13:58:52Z</time>
      </trkpt>
      <trkpt lat="45.45769" lon="6.10216">
        <ele>449.399993</ele>
        <time>2013-04-23T13:59:49Z</time>
      </trkpt>
      <trkpt lat="45.45767" lon="6.10228">
        <ele>447.700012</ele>
        <time>2013-04-23T14:00:00Z</time>
      </trkpt>
      <trkpt lat="45.45767" lon="6.10229">
        <ele>447.600006</ele>
        <time>2013-04-23T14:00:01Z</time>
      </trkpt>
      <trkpt lat="45.45774" lon="6.1025">
        <ele>444.399993</ele>
        <time>2013-04-23T14:00:22Z</time>
      </trkpt>
      <trkpt lat="45.45779" lon="6.10261">
        <ele>441.600006</ele>
        <time>2013-04-23T14:00:31Z</time>
      </trkpt>
      <trkpt lat="45.45781" lon="6.10272">
        <ele>439.600006</ele>
        <time>2013-04-23T14:00:44Z</time>
      </trkpt>
      <trkpt lat="45.45783" lon="6.10283">
        <ele>438.299987</ele>
        <time>2013-04-23T14:00:55Z</time>
      </trkpt>
      <trkpt lat="45.45786" lon="6.10295">
        <ele>435.600006</ele>
        <time>2013-04-23T14:01:06Z</time>
      </trkpt>
      <trkpt lat="45.45786" lon="6.10296">
        <ele>435.399993</ele>
        <time>2013-04-23T14:01:07Z</time>
      </trkpt>
      <trkpt lat="45.45789" lon="6.10319">
        <ele>430.5</ele>
        <time>2013-04-23T14:01:33Z</time>
      </trkpt>
      <trkpt lat="45.45791" lon="6.10331">
        <ele>425.700012</ele>
        <time>2013-04-23T14:01:53Z</time>
      </trkpt>
      <trkpt lat="45.45796" lon="6.10341">
        <ele>423.899993</ele>
        <time>2013-04-23T14:02:05Z</time>
      </trkpt>
      <trkpt lat="45.458" lon="6.1035">
        <ele>422.399993</ele>
        <time>2013-04-23T14:02:13Z</time>
      </trkpt>
      <trkpt lat="45.45802" lon="6.10351">
        <ele>422.200012</ele>
        <time>2013-04-23T14:02:14Z</time>
      </trkpt>
      <trkpt lat="45.45815" lon="6.10362">
        <ele>419.100006</ele>
        <time>2013-04-23T14:02:30Z</time>
      </trkpt>
      <trkpt lat="45.4582" lon="6.10371">
        <ele>417.100006</ele>
        <time>2013-04-23T14:02:38Z</time>
      </trkpt>
      <trkpt lat="45.45826" lon="6.1038">
        <ele>415.5</ele>
        <time>2013-04-23T14:02:47Z</time>
      </trkpt>
      <trkpt lat="45.45831" lon="6.1039">
        <ele>415.200012</ele>
        <time>2013-04-23T14:02:57Z</time>
      </trkpt>
      <trkpt lat="45.45836" lon="6.10399">
        <ele>412.799987</ele>
        <time>2013-04-23T14:03:05Z</time>
      </trkpt>
      <trkpt lat="45.4584" lon="6.1041">
        <ele>411</ele>
        <time>2013-04-23T14:03:14Z</time>
      </trkpt>
      <trkpt lat="45.45844" lon="6.10421">
        <ele>409.899993</ele>
        <time>2013-04-23T14:03:22Z</time>
      </trkpt>
      <trkpt lat="45.45844" lon="6.10422">
        <ele>409.899993</ele>
        <time>2013-04-23T14:03:23Z</time>
      </trkpt>
      <trkpt lat="45.45857" lon="6.10434">
        <ele>407.799987</ele>
        <time>2013-04-23T14:03:38Z</time>
      </trkpt>
      <trkpt lat="45.45862" lon="6.10445">
        <ele>406</ele>
        <time>2013-04-23T14:03:47Z</time>
      </trkpt>
      <trkpt lat="45.45866" lon="6.10457">
        <ele>403.399993</ele>
        <time>2013-04-23T14:03:57Z</time>
      </trkpt>
      <trkpt lat="45.45869" lon="6.10468">
        <ele>401.299987</ele>
        <time>2013-04-23T14:04:08Z</time>
      </trkpt>
      <trkpt lat="45.45875" lon="6.10477">
        <ele>401.399993</ele>
        <time>2013-04-23T14:04:16Z</time>
      </trkpt>
      <trkpt lat="45.45882" lon="6.10485">
        <ele>400.600006</ele>
        <time>2013-04-23T14:04:23Z</time>
      </trkpt>
      <trkpt lat="45.45889" lon="6.10492">
        <ele>398.200012</ele>
        <time>2013-04-23T14:04:33Z</time>
      </trkpt>
      <trkpt lat="45.45889" lon="6.10493">
        <ele>398</ele>
        <time>2013-04-23T14:04:34Z</time>
      </trkpt>
      <trkpt lat="45.4589" lon="6.10515">
        <ele>394.5</ele>
        <time>2013-04-23T14:04:54Z</time>
      </trkpt>
      <trkpt lat="45.45885" lon="6.10523">
        <ele>392.200012</ele>
        <time>2013-04-23T14:05:03Z</time>
      </trkpt>
      <trkpt lat="45.45877" lon="6.10529">
        <ele>391.700012</ele>
        <time>2013-04-23T14:05:11Z</time>
      </trkpt>
      <trkpt lat="45.4587" lon="6.10535">
        <ele>391.100006</ele>
        <time>2013-04-23T14:05:19Z</time>
      </trkpt>
      <trkpt lat="45.45863" lon="6.10541">
        <ele>389.899993</ele>
        <time>2013-04-23T14:05:28Z</time>
      </trkpt>
      <trkpt lat="45.45857" lon="6.1055">
        <ele>388.200012</ele>
        <time>2013-04-23T14:05:39Z</time>
      </trkpt>
      <trkpt lat="45.45856" lon="6.10551">
        <ele>388</ele>
        <time>2013-04-23T14:05:40Z</time>
      </trkpt>
      <trkpt lat="45.45845" lon="6.10568">
        <ele>384.399993</ele>
        <time>2013-04-23T14:05:57Z</time>
      </trkpt>
      <trkpt lat="45.4584" lon="6.10579">
        <ele>383.399993</ele>
        <time>2013-04-23T14:07:04Z</time>
      </trkpt>
      <trkpt lat="45.4584" lon="6.10579">
        <ele>383.399993</ele>
        <time>2013-04-23T14:07:05Z</time>
      </trkpt>
      <trkpt lat="45.45841" lon="6.1058">
        <ele>383.299987</ele>
        <time>2013-04-23T14:10:53Z</time>
      </trkpt>
      <trkpt lat="45.4584" lon="6.10579">
        <ele>383.100006</ele>
        <time>2013-04-23T14:10:54Z</time>
      </trkpt>
      <trkpt lat="45.45828" lon="6.10563">
        <ele>381.700012</ele>
        <time>2013-04-23T14:11:12Z</time>
      </trkpt>
      <trkpt lat="45.45821" lon="6.10556">
        <ele>381.799987</ele>
        <time>2013-04-23T14:11:20Z</time>
      </trkpt>
      <trkpt lat="45.45814" lon="6.10548">
        <ele>382</ele>
        <time>2013-04-23T14:11:29Z</time>
      </trkpt>
      <trkpt lat="45.45807" lon="6.10541">
        <ele>380.799987</ele>
        <time>2013-04-23T14:11:38Z</time>
      </trkpt>
      <trkpt lat="45.45801" lon="6.10532">
        <ele>379.799987</ele>
        <time>2013-04-23T14:11:47Z</time>
      </trkpt>
      <trkpt lat="45.45795" lon="6.10524">
        <ele>379.5</ele>
        <time>2013-04-23T14:11:55Z</time>
      </trkpt>
      <trkpt lat="45.45794" lon="6.10522">
        <ele>379.5</ele>
        <time>2013-04-23T14:11:56Z</time>
      </trkpt>
      <trkpt lat="45.45782" lon="6.10509">
        <ele>378.299987</ele>
        <time>2013-04-23T14:12:08Z</time>
      </trkpt>
      <trkpt lat="45.45775" lon="6.10502">
        <ele>378.200012</ele>
        <time>2013-04-23T14:12:15Z</time>
      </trkpt>
      <trkpt lat="45.45768" lon="6.10495">
        <ele>377.399993</ele>
        <time>2013-04-23T14:12:22Z</time>
      </trkpt>
      <trkpt lat="45.45761" lon="6.10488">
        <ele>377.399993</ele>
        <time>2013-04-23T14:12:29Z</time>
      </trkpt>
      <trkpt lat="45.45754" lon="6.10482">
        <ele>377.100006</ele>
        <time>2013-04-23T14:12:36Z</time>
      </trkpt>
      <trkpt lat="45.45747" lon="6.10476">
        <ele>376.299987</ele>
        <time>2013-04-23T14:12:43Z</time>
      </trkpt>
      <trkpt lat="45.4574" lon="6.1047">
        <ele>376.200012</ele>
        <time>2013-04-23T14:12:50Z</time>
      </trkpt>
      <trkpt lat="45.45732" lon="6.10464">
        <ele>377</ele>
        <time>2013-04-23T14:12:57Z</time>
      </trkpt>
      <trkpt lat="45.45731" lon="6.10464">
        <ele>376.799987</ele>
        <time>2013-04-23T14:12:58Z</time>
      </trkpt>
      <trkpt lat="45.45716" lon="6.10453">
        <ele>376.399993</ele>
        <time>2013-04-23T14:13:11Z</time>
      </trkpt>
      <trkpt lat="45.45709" lon="6.10446">
        <ele>376.5</ele>
        <time>2013-04-23T14:13:18Z</time>
      </trkpt>
      <trkpt lat="45.45702" lon="6.1044">
        <ele>376</ele>
        <time>2013-04-23T14:13:26Z</time>
      </trkpt>
      <trkpt lat="45.45694" lon="6.10433">
        <ele>375.399993</ele>
        <time>2013-04-23T14:13:37Z</time>
      </trkpt>
      <trkpt lat="45.45687" lon="6.10428">
        <ele>375.399993</ele>
        <time>2013-04-23T14:13:44Z</time>
      </trkpt>
      <trkpt lat="45.45679" lon="6.10422">
        <ele>375.600006</ele>
        <time>2013-04-23T14:13:51Z</time>
      </trkpt>
      <trkpt lat="45.45673" lon="6.10416">
        <ele>375</ele>
        <time>2013-04-23T14:13:58Z</time>
      </trkpt>
      <trkpt lat="45.45666" lon="6.10408">
        <ele>375.299987</ele>
        <time>2013-04-23T14:14:05Z</time>
      </trkpt>
      <trkpt lat="45.45665" lon="6.10408">
        <ele>375.399993</ele>
        <time>2013-04-23T14:14:06Z</time>
      </trkpt>
      <trkpt lat="45.45652" lon="6.10394">
        <ele>374.399993</ele>
        <time>2013-04-23T14:14:19Z</time>
      </trkpt>
      <trkpt lat="45.45645" lon="6.10387">
        <ele>374.5</ele>
        <time>2013-04-23T14:14:26Z</time>
      </trkpt>
      <trkpt lat="45.45639" lon="6.1038">
        <ele>374.299987</ele>
        <time>2013-04-23T14:14:33Z</time>
      </trkpt>
      <trkpt lat="45.45632" lon="6.10374">
        <ele>374.299987</ele>
        <time>2013-04-23T14:14:40Z</time>
      </trkpt>
      <trkpt lat="45.45627" lon="6.10365">
        <ele>374.399993</ele>
        <time>2013-04-23T14:14:47Z</time>
      </trkpt>
      <trkpt lat="45.45619" lon="6.10358">
        <ele>374.100006</ele>
        <time>2013-04-23T14:14:54Z</time>
      </trkpt>
      <trkpt lat="45.45612" lon="6.10352">
        <ele>373.5</ele>
        <time>2013-04-23T14:15:00Z</time>
      </trkpt>
      <trkpt lat="45.45605" lon="6.10346">
        <ele>373.799987</ele>
        <time>2013-04-23T14:15:06Z</time>
      </trkpt>
      <trkpt lat="45.45604" lon="6.10344">
        <ele>373.700012</ele>
        <time>2013-04-23T14:15:07Z</time>
      </trkpt>
      <trkpt lat="45.45591" lon="6.10334">
        <ele>372.899993</ele>
        <time>2013-04-23T14:15:18Z</time>
      </trkpt>
      <trkpt lat="45.45584" lon="6.10326">
        <ele>373.299987</ele>
        <time>2013-04-23T14:15:27Z</time>
      </trkpt>
      <trkpt lat="45.45577" lon="6.10318">
        <ele>371.799987</ele>
        <time>2013-04-23T14:15:41Z</time>
      </trkpt>
      <trkpt lat="45.45571" lon="6.1031">
        <ele>372.600006</ele>
        <time>2013-04-23T14:16:19Z</time>
      </trkpt>
      <trkpt lat="45.45571" lon="6.10308">
        <ele>372.700012</ele>
        <time>2013-04-23T14:16:20Z</time>
      </trkpt>
      <trkpt lat="45.45559" lon="6.10292">
        <ele>372.799987</ele>
        <time>2013-04-23T14:16:35Z</time>
      </trkpt>
      <trkpt lat="45.45553" lon="6.10283">
        <ele>374</ele>
        <time>2013-04-23T14:16:43Z</time>
      </trkpt>
      <trkpt lat="45.45547" lon="6.10276">
        <ele>374.200012</ele>
        <time>2013-04-23T14:16:50Z</time>
      </trkpt>
      <trkpt lat="45.45542" lon="6.10267">
        <ele>373.799987</ele>
        <time>2013-04-23T14:16:57Z</time>
      </trkpt>
      <trkpt lat="45.45535" lon="6.10259">
        <ele>374.399993</ele>
        <time>2013-04-23T14:17:05Z</time>
      </trkpt>
      <trkpt lat="45.45529" lon="6.10251">
        <ele>374.799987</ele>
        <time>2013-04-23T14:17:12Z</time>
      </trkpt>
      <trkpt lat="45.45522" lon="6.10244">
        <ele>375.5</ele>
        <time>2013-04-23T14:17:18Z</time>
      </trkpt>
      <trkpt lat="45.45516" lon="6.10235">
        <ele>376.399993</ele>
        <time>2013-04-23T14:17:27Z</time>
      </trkpt>
      <trkpt lat="45.45516" lon="6.10233">
        <ele>376.600006</ele>
        <time>2013-04-23T14:17:28Z</time>
      </trkpt>
      <trkpt lat="45.45509" lon="6.10213">
        <ele>375.399993</ele>
        <time>2013-04-23T14:17:42Z</time>
      </trkpt>
      <trkpt lat="45.45505" lon="6.10203">
        <ele>376.600006</ele>
        <time>2013-04-23T14:17:49Z</time>
      </trkpt>
      <trkpt lat="45.455" lon="6.10194">
        <ele>377</ele>
        <time>2013-04-23T14:17:55Z</time>
      </trkpt>
      <trkpt lat="45.45495" lon="6.10185">
        <ele>377.299987</ele>
        <time>2013-04-23T14:18:01Z</time>
      </trkpt>
      <trkpt lat="45.45489" lon="6.10176">
        <ele>376.799987</ele>
        <time>2013-04-23T14:18:07Z</time>
      </trkpt>
      <trkpt lat="45.45484" lon="6.10167">
        <ele>378.100006</ele>
        <time>2013-04-23T14:18:13Z</time>
      </trkpt>
      <trkpt lat="45.45478" lon="6.10158">
        <ele>377</ele>
        <time>2013-04-23T14:18:20Z</time>
      </trkpt>
      <trkpt lat="45.45473" lon="6.10149">
        <ele>376.799987</ele>
        <time>2013-04-23T14:18:26Z</time>
      </trkpt>
      <trkpt lat="45.45468" lon="6.10139">
        <ele>377</ele>
        <time>2013-04-23T14:18:33Z</time>
      </trkpt>
      <trkpt lat="45.45467" lon="6.10138">
        <ele>377.200012</ele>
        <time>2013-04-23T14:18:34Z</time>
      </trkpt>
      <trkpt lat="45.45459" lon="6.10119">
        <ele>377.600006</ele>
        <time>2013-04-23T14:18:48Z</time>
      </trkpt>
      <trkpt lat="45.45455" lon="6.10108">
        <ele>377.5</ele>
        <time>2013-04-23T14:18:55Z</time>
      </trkpt>
      <trkpt lat="45.45452" lon="6.10096">
        <ele>377.5</ele>
        <time>2013-04-23T14:19:03Z</time>
      </trkpt>
      <trkpt lat="45.45449" lon="6.10085">
        <ele>377.399993</ele>
        <time>2013-04-23T14:19:10Z</time>
      </trkpt>
      <trkpt lat="45.45444" lon="6.10076">
        <ele>377.5</ele>
        <time>2013-04-23T14:19:17Z</time>
      </trkpt>
      <trkpt lat="45.45439" lon="6.10067">
        <ele>376.899993</ele>
        <time>2013-04-23T14:19:24Z</time>
      </trkpt>
      <trkpt lat="45.45432" lon="6.10058">
        <ele>377.700012</ele>
        <time>2013-04-23T14:19:31Z</time>
      </trkpt>
      <trkpt lat="45.45425" lon="6.1005">
        <ele>378.600006</ele>
        <time>2013-04-23T14:19:38Z</time>
      </trkpt>
      <trkpt lat="45.45424" lon="6.10048">
        <ele>378.5</ele>
        <time>2013-04-23T14:19:39Z</time>
      </trkpt>
      <trkpt lat="45.4541" lon="6.10048">
        <ele>377.5</ele>
        <time>2013-04-23T14:19:53Z</time>
      </trkpt>
      <trkpt lat="45.45402" lon="6.10054">
        <ele>376.600006</ele>
        <time>2013-04-23T14:19:59Z</time>
      </trkpt>
      <trkpt lat="45.45396" lon="6.10061">
        <ele>375.600006</ele>
        <time>2013-04-23T14:20:05Z</time>
      </trkpt>
      <trkpt lat="45.45391" lon="6.10071">
        <ele>375</ele>
        <time>2013-04-23T14:20:12Z</time>
      </trkpt>
      <trkpt lat="45.45387" lon="6.10081">
        <ele>374.200012</ele>
        <time>2013-04-23T14:20:19Z</time>
      </trkpt>
      <trkpt lat="45.45383" lon="6.1009">
        <ele>373.299987</ele>
        <time>2013-04-23T14:20:33Z</time>
      </trkpt>
      <trkpt lat="45.45377" lon="6.10099">
        <ele>372.299987</ele>
        <time>2013-04-23T14:20:41Z</time>
      </trkpt>
      <trkpt lat="45.45376" lon="6.101">
        <ele>372.299987</ele>
        <time>2013-04-23T14:20:42Z</time>
      </trkpt>
      <trkpt lat="45.45368" lon="6.10117">
        <ele>371.799987</ele>
        <time>2013-04-23T14:20:55Z</time>
      </trkpt>
      <trkpt lat="45.45362" lon="6.10127">
        <ele>371.100006</ele>
        <time>2013-04-23T14:21:03Z</time>
      </trkpt>
      <trkpt lat="45.45357" lon="6.10137">
        <ele>369.5</ele>
        <time>2013-04-23T14:21:11Z</time>
      </trkpt>
      <trkpt lat="45.45353" lon="6.10147">
        <ele>368.799987</ele>
        <time>2013-04-23T14:21:19Z</time>
      </trkpt>
      <trkpt lat="45.45348" lon="6.10157">
        <ele>367.899993</ele>
        <time>2013-04-23T14:21:27Z</time>
      </trkpt>
      <trkpt lat="45.45343" lon="6.10168">
        <ele>367.799987</ele>
        <time>2013-04-23T14:21:36Z</time>
      </trkpt>
      <trkpt lat="45.45339" lon="6.10177">
        <ele>368.100006</ele>
        <time>2013-04-23T14:21:43Z</time>
      </trkpt>
      <trkpt lat="45.45339" lon="6.10179">
        <ele>368</ele>
        <time>2013-04-23T14:21:44Z</time>
      </trkpt>
      <trkpt lat="45.45331" lon="6.10197">
        <ele>366</ele>
        <time>2013-04-23T14:21:57Z</time>
      </trkpt>
      <trkpt lat="45.45326" lon="6.10207">
        <ele>364.899993</ele>
        <time>2013-04-23T14:22:04Z</time>
      </trkpt>
      <trkpt lat="45.45322" lon="6.10217">
        <ele>364.399993</ele>
        <time>2013-04-23T14:22:12Z</time>
      </trkpt>
      <trkpt lat="45.45317" lon="6.10226">
        <ele>364.299987</ele>
        <time>2013-04-23T14:22:20Z</time>
      </trkpt>
      <trkpt lat="45.45311" lon="6.10236">
        <ele>364</ele>
        <time>2013-04-23T14:22:28Z</time>
      </trkpt>
      <trkpt lat="45.45307" lon="6.10245">
        <ele>363.299987</ele>
        <time>2013-04-23T14:22:39Z</time>
      </trkpt>
      <trkpt lat="45.45301" lon="6.10254">
        <ele>362.799987</ele>
        <time>2013-04-23T14:22:47Z</time>
      </trkpt>
      <trkpt lat="45.453" lon="6.10256">
        <ele>362.799987</ele>
        <time>2013-04-23T14:22:48Z</time>
      </trkpt>
      <trkpt lat="45.45288" lon="6.10268">
        <ele>362.899993</ele>
        <time>2013-04-23T14:22:59Z</time>
      </trkpt>
      <trkpt lat="45.45282" lon="6.10276">
        <ele>361.799987</ele>
        <time>2013-04-23T14:23:07Z</time>
      </trkpt>
      <trkpt lat="45.45273" lon="6.10278">
        <ele>361.399993</ele>
        <time>2013-04-23T14:23:15Z</time>
      </trkpt>
      <trkpt lat="45.45265" lon="6.10278">
        <ele>361.799987</ele>
        <time>2013-04-23T14:23:22Z</time>
      </trkpt>
      <trkpt lat="45.45257" lon="6.10273">
        <ele>361.600006</ele>
        <time>2013-04-23T14:23:30Z</time>
      </trkpt>
      <trkpt lat="45.45249" lon="6.10267">
        <ele>361.299987</ele>
        <time>2013-04-23T14:23:39Z</time>
      </trkpt>
      <trkpt lat="45.45243" lon="6.10258">
        <ele>361.5</ele>
        <time>2013-04-23T14:23:47Z</time>
      </trkpt>
      <trkpt lat="45.45239" lon="6.10247">
        <ele>361.399993</ele>
        <time>2013-04-23T14:23:55Z</time>
      </trkpt>
      <trkpt lat="45.45239" lon="6.10246">
        <ele>361.399993</ele>
        <time>2013-04-23T14:23:56Z</time>
      </trkpt>
      <trkpt lat="45.45232" lon="6.10225">
        <ele>361.600006</ele>
        <time>2013-04-23T14:24:13Z</time>
      </trkpt>
      <trkpt lat="45.45231" lon="6.10223">
        <ele>361.700012</ele>
        <time>2013-04-23T14:24:15Z</time>
      </trkpt>
      <trkpt lat="45.45231" lon="6.10224">
        <ele>345.600006</ele>
        <time>2013-04-23T14:30:43Z</time>
      </trkpt>
      <trkpt lat="45.45234" lon="6.1022">
        <ele>345.351745</ele>
        <time>2013-04-23T14:32:18Z</time>
      </trkpt>
      <trkpt lat="45.45234" lon="6.1022">
        <ele>345.399993</ele>
        <time>2013-04-23T14:32:22Z</time>
      </trkpt>
      <trkpt lat="45.45234" lon="6.1022">
        <ele>345.399993</ele>
        <time>2013-04-23T14:32:22Z</time>
      </trkpt>
      <trkpt lat="45.45239" lon="6.10221">
        <ele>345.311187</ele>
        <time>2013-04-23T14:34:28Z</time>
      </trkpt>
      <trkpt lat="45.45234" lon="6.1022">
        <ele>345.3</ele>
        <time>2013-04-23T14:32:22Z</time>
      </trkpt>
      <trkpt lat="45.45239" lon="6.10221">
        <ele>345.4</ele>
        <time>2013-04-23T14:34:31Z</time>
      </trkpt>
      <trkpt lat="45.45239" lon="6.10221">
        <ele>345.4</ele>
        <time>2013-04-23T14:34:31Z</time>
      </trkpt>
    </trkseg>
  </trk>
</gpx>